Petworth, United Kingdom
Current Conditions -  °F | °C
As of 11:50 AM on Thursday 29 Jan 2015 (Local Time) from EGKA Reporting Station
Scattered Clouds Scattered Clouds  
Wind Chill: 37°   Ceiling: Unl
Heat Index: 45°   Visibility: 6mi
Dew Point: 36°   Wind: 17mph
Humidity: 71%   Direction: 250°WSW
Pressure: 29.09"   Gusts: NA
Location:  50.99°N, 0.61°W
Report Text: EGKA 291150Z 25015KT 9999 FEW014 SCT020 07/02 Q0985
Loading
Personal Weather Stations






























Interactive Weather Map New forecast layout! Learn more

10-Day Weather Forecast

Advertisements
Track Severe Weather on mobile